createdAt,value
2023-03-29T00:01:35.462Z,58.29
2023-03-29T00:04:19.814Z,58.27
2023-03-29T00:07:04.434Z,58.22
2023-03-29T00:09:48.917Z,57.91
2023-03-29T00:12:31.916Z,58.28
2023-03-29T00:15:15.185Z,58.30
2023-03-29T00:17:58.709Z,58.41
2023-03-29T00:20:41.609Z,58.26
2023-03-29T00:23:25.125Z,58.33
2023-03-29T00:26:09.560Z,58.22
2023-03-29T00:28:52.313Z,57.77
2023-03-29T00:31:35.210Z,57.60
2023-03-29T00:34:18.202Z,57.86
2023-03-29T00:37:01.628Z,57.81
2023-03-29T00:39:44.673Z,57.91
2023-03-29T00:42:29.152Z,58.06
2023-03-29T00:45:19.824Z,58.13
2023-03-29T00:48:05.937Z,57.93
2023-03-29T00:50:53.215Z,57.93
2023-03-29T00:53:39.211Z,58.33
2023-03-29T00:56:27.751Z,58.55
2023-03-29T00:59:16.174Z,58.24
2023-03-29T01:02:03.526Z,57.96
2023-03-29T01:04:51.859Z,58.31
2023-03-29T01:07:41.156Z,58.13
2023-03-29T01:10:29.010Z,58.14
2023-03-29T01:13:16.906Z,58.34
2023-03-29T01:16:02.845Z,58.05
2023-03-29T01:18:47.002Z,58.21
2023-03-29T01:21:36.353Z,58.33
2023-03-29T01:24:42.236Z,58.20
2023-03-29T01:27:43.806Z,58.25
2023-03-29T01:30:32.071Z,58.13
2023-03-29T01:33:21.275Z,58.19
2023-03-29T01:36:14.026Z,58.15
2023-03-29T01:38:59.188Z,58.39
2023-03-29T01:41:47.848Z,58.35
2023-03-29T01:44:37.709Z,58.51
2023-03-29T01:47:28.854Z,58.41
2023-03-29T01:50:18.692Z,58.47
2023-03-29T01:53:09.036Z,58.04
2023-03-29T01:55:56.066Z,58.09
2023-03-29T01:58:44.783Z,58.19
2023-03-29T02:01:32.995Z,58.48
2023-03-29T02:04:19.547Z,58.56
2023-03-29T02:07:05.349Z,58.45
2023-03-29T02:09:50.558Z,58.58
2023-03-29T02:12:34.338Z,58.59
2023-03-29T02:15:20.690Z,58.62
2023-03-29T02:18:07.017Z,58.65
2023-03-29T02:20:51.923Z,58.33
2023-03-29T02:23:39.234Z,58.24
2023-03-29T02:26:24.009Z,58.09
2023-03-29T02:29:06.980Z,57.75
2023-03-29T02:31:54.685Z,57.69
2023-03-29T02:34:47.713Z,57.43
2023-03-29T02:37:34.527Z,57.23
2023-03-29T02:40:18.380Z,56.77
2023-03-29T02:43:03.527Z,56.38
2023-03-29T02:45:48.184Z,56.54
2023-03-29T02:48:33.307Z,55.82
2023-03-29T02:51:21.444Z,55.70
2023-03-29T02:54:08.273Z,55.75
2023-03-29T02:56:57.451Z,56.06
2023-03-29T02:59:41.161Z,56.22
2023-03-29T03:02:25.914Z,56.06
2023-03-29T03:05:10.665Z,56.34
2023-03-29T03:07:55.018Z,56.38
2023-03-29T03:10:38.268Z,56.35
2023-03-29T03:13:21.413Z,56.59
2023-03-29T03:16:04.471Z,56.83
2023-03-29T03:18:48.781Z,56.75
2023-03-29T03:21:31.749Z,56.76
2023-03-29T03:24:17.748Z,56.96
2023-03-29T03:27:00.631Z,57.10
2023-03-29T03:29:44.098Z,57.31
2023-03-29T03:32:27.150Z,57.21
2023-03-29T03:35:39.717Z,57.49
2023-03-29T03:38:23.517Z,57.27
2023-03-29T03:41:14.127Z,57.53
2023-03-29T03:43:57.006Z,57.16
2023-03-29T03:46:40.421Z,57.56
2023-03-29T03:49:23.314Z,57.22
2023-03-29T03:52:06.559Z,57.20
2023-03-29T03:54:50.335Z,57.18
2023-03-29T03:57:53.419Z,57.18
2023-03-29T04:00:36.919Z,57.18
2023-03-29T04:03:37.613Z,57.27
2023-03-29T04:06:20.933Z,57.44
2023-03-29T04:09:27.012Z,57.33
2023-03-29T04:12:25.010Z,57.33
2023-03-29T04:15:12.192Z,57.59
2023-03-29T04:18:02.023Z,57.62
2023-03-29T04:20:51.897Z,57.79
2023-03-29T04:23:37.910Z,57.84
2023-03-29T04:26:22.951Z,58.24
2023-03-29T04:29:12.305Z,58.29
2023-03-29T04:32:02.366Z,58.42
2023-03-29T04:34:59.275Z,58.74
2023-03-29T04:37:42.188Z,58.85
2023-03-29T04:40:28.978Z,58.81
2023-03-29T04:43:34.879Z,59.18
2023-03-29T04:46:27.271Z,59.24
2023-03-29T04:49:40.612Z,59.47
2023-03-29T04:52:28.049Z,59.66
2023-03-29T04:55:12.862Z,60.11
2023-03-29T04:58:07.076Z,60.18
2023-03-29T05:00:51.646Z,60.52
2023-03-29T05:03:46.128Z,60.60
2023-03-29T05:06:36.864Z,60.57
2023-03-29T05:09:22.348Z,60.68
2023-03-29T05:12:07.806Z,60.68
2023-03-29T05:15:02.736Z,60.80
2023-03-29T05:17:45.682Z,61.00
2023-03-29T05:20:29.852Z,61.25
2023-03-29T05:23:17.527Z,61.54
2023-03-29T05:26:22.381Z,61.91
2023-03-29T05:29:09.075Z,61.87
2023-03-29T05:31:53.306Z,62.28
2023-03-29T05:34:37.082Z,62.41
2023-03-29T05:37:20.993Z,62.86
2023-03-29T05:40:12.924Z,63.21
2023-03-29T05:43:14.521Z,63.39
2023-03-29T05:45:57.874Z,64.06
2023-03-29T05:48:41.794Z,64.12
2023-03-29T05:51:27.282Z,64.39
2023-03-29T05:54:12.013Z,64.62
2023-03-29T05:56:56.327Z,64.85
2023-03-29T05:59:39.200Z,65.07
2023-03-29T06:02:22.229Z,65.23
2023-03-29T06:05:09.296Z,65.39
2023-03-29T06:07:58.189Z,65.50
2023-03-29T06:11:04.555Z,65.71
2023-03-29T06:14:07.699Z,66.03
2023-03-29T06:16:56.621Z,66.28
2023-03-29T06:19:39.710Z,66.23
2023-03-29T06:22:22.725Z,66.38
2023-03-29T06:25:06.608Z,66.37
2023-03-29T06:27:50.196Z,67.83
2023-03-29T06:30:36.462Z,66.92
2023-03-29T06:33:20.503Z,66.96
2023-03-29T06:36:23.784Z,67.29
2023-03-29T06:39:08.675Z,67.05
2023-03-29T06:42:20.501Z,68.06
2023-03-29T06:45:24.772Z,67.33
2023-03-29T06:48:12.319Z,67.21
2023-03-29T06:50:55.634Z,67.37
2023-03-29T06:53:41.623Z,67.40
2023-03-29T06:56:24.495Z,67.42
2023-03-29T06:59:16.541Z,67.43
2023-03-29T07:02:07.807Z,67.29
2023-03-29T07:05:08.755Z,67.45
2023-03-29T07:07:56.830Z,67.56
2023-03-29T07:10:56.626Z,67.68
2023-03-29T07:13:57.883Z,67.78
2023-03-29T07:16:42.578Z,67.84
2023-03-29T07:19:34.116Z,68.05
2023-03-29T07:22:45.783Z,67.97
2023-03-29T07:25:30.022Z,67.83
2023-03-29T07:28:14.506Z,67.90
2023-03-29T07:31:03.760Z,68.42
2023-03-29T07:33:49.520Z,68.49
2023-03-29T07:36:34.946Z,68.37
2023-03-29T07:39:19.415Z,68.50
2023-03-29T07:42:21.645Z,68.72
2023-03-29T07:45:05.003Z,68.54
2023-03-29T07:47:56.193Z,68.73
2023-03-29T07:50:39.683Z,68.75
2023-03-29T07:53:23.849Z,68.90
2023-03-29T07:56:11.142Z,68.63
2023-03-29T07:59:02.190Z,68.75
2023-03-29T08:01:45.995Z,68.83
2023-03-29T08:04:42.077Z,68.83
2023-03-29T08:07:33.961Z,68.83
2023-03-29T08:10:35.393Z,68.69
2023-03-29T08:13:35.948Z,68.65
2023-03-29T08:16:37.112Z,68.38
2023-03-29T08:19:25.349Z,68.51
2023-03-29T08:22:21.093Z,68.67
2023-03-29T08:25:22.963Z,68.80
2023-03-29T08:28:08.913Z,68.86
2023-03-29T08:31:04.036Z,69.20
2023-03-29T08:33:47.192Z,69.37
2023-03-29T08:36:52.613Z,69.22
2023-03-29T08:39:46.018Z,69.26
2023-03-29T08:43:15.525Z,69.36
2023-03-29T08:46:38.348Z,69.71
2023-03-29T08:49:44.172Z,70.21
2023-03-29T08:52:36.358Z,69.75
2023-03-29T08:55:34.591Z,69.79
2023-03-29T08:58:52.511Z,69.81
2023-03-29T09:01:38.485Z,70.04
2023-03-29T09:04:25.905Z,70.25
2023-03-29T09:07:17.064Z,69.96
2023-03-29T09:10:03.540Z,70.33
2023-03-29T09:13:11.103Z,70.66
2023-03-29T09:16:06.182Z,70.84
2023-03-29T09:19:08.100Z,71.12
2023-03-29T09:21:59.171Z,71.07
2023-03-29T09:24:54.652Z,71.01
2023-03-29T09:27:48.886Z,71.12
2023-03-29T09:30:57.603Z,71.45
2023-03-29T09:33:43.690Z,71.13
2023-03-29T09:36:39.111Z,71.25
2023-03-29T09:39:23.681Z,71.58
2023-03-29T09:42:14.660Z,71.50
2023-03-29T09:45:08.472Z,71.44
2023-03-29T09:48:03.746Z,71.27
2023-03-29T09:50:51.343Z,71.43
2023-03-29T09:53:36.436Z,71.33
2023-03-29T09:56:34.336Z,71.25
2023-03-29T09:59:26.336Z,71.42
2023-03-29T10:02:11.951Z,70.94
2023-03-29T10:04:58.802Z,71.66
2023-03-29T10:07:46.403Z,71.55
2023-03-29T10:10:35.598Z,71.68
2023-03-29T10:13:23.647Z,71.80
2023-03-29T10:16:09.261Z,71.98
2023-03-29T10:18:54.665Z,71.64
2023-03-29T10:21:38.594Z,71.42
2023-03-29T10:24:22.376Z,71.49
2023-03-29T10:27:11.735Z,71.73
2023-03-29T10:29:55.794Z,71.68
2023-03-29T10:32:41.569Z,71.65
2023-03-29T10:35:28.901Z,71.37
2023-03-29T10:38:14.845Z,71.64
2023-03-29T10:41:08.034Z,71.64
2023-03-29T10:43:52.461Z,71.61
2023-03-29T10:46:42.723Z,72.10
2023-03-29T10:49:26.131Z,72.30
2023-03-29T10:52:09.313Z,71.94
2023-03-29T10:54:55.949Z,71.64
2023-03-29T10:57:49.956Z,71.87
2023-03-29T11:00:41.876Z,71.94
2023-03-29T11:03:40.230Z,71.63
2023-03-29T11:06:29.170Z,71.47
2023-03-29T11:09:21.291Z,71.34
2023-03-29T11:12:16.338Z,71.54
2023-03-29T11:15:12.777Z,71.65
2023-03-29T11:18:11.509Z,71.30
2023-03-29T11:21:06.814Z,71.20
2023-03-29T11:24:03.576Z,71.46
2023-03-29T11:26:58.436Z,71.31
2023-03-29T11:29:44.898Z,71.23
2023-03-29T11:32:33.375Z,70.91
2023-03-29T11:35:49.312Z,71.26
2023-03-29T11:38:41.371Z,71.14
2023-03-29T11:41:28.830Z,70.94
2023-03-29T11:44:17.582Z,71.00
2023-03-29T11:47:05.000Z,70.91
2023-03-29T11:49:54.433Z,70.97
2023-03-29T11:52:43.719Z,70.78
2023-03-29T11:55:29.121Z,70.66
2023-03-29T11:58:18.318Z,70.87
2023-03-29T12:01:05.338Z,70.97
2023-03-29T12:03:54.218Z,71.09
2023-03-29T12:06:43.592Z,70.86
2023-03-29T12:09:34.433Z,70.90
2023-03-29T12:12:23.379Z,70.83
2023-03-29T12:15:10.855Z,70.71
2023-03-29T12:18:03.734Z,70.66
2023-03-29T12:20:52.509Z,70.37
2023-03-29T12:23:35.748Z,70.42
2023-03-29T12:26:35.320Z,70.63
2023-03-29T12:29:31.853Z,70.54
2023-03-29T12:32:40.441Z,70.45
2023-03-29T12:36:13.983Z,70.12
2023-03-29T12:39:00.119Z,70.17
2023-03-29T12:41:51.993Z,70.22
2023-03-29T12:45:04.611Z,70.20
2023-03-29T12:47:52.855Z,69.96
2023-03-29T12:50:38.116Z,69.78
2023-03-29T12:53:25.648Z,70.03
2023-03-29T12:56:13.389Z,70.08
2023-03-29T12:59:07.871Z,69.98
2023-03-29T13:02:00.288Z,70.06
2023-03-29T13:04:52.136Z,70.07
2023-03-29T13:07:47.488Z,70.15
2023-03-29T13:10:37.966Z,69.87
2023-03-29T13:13:25.782Z,69.84
2023-03-29T13:16:18.824Z,69.65
2023-03-29T13:19:29.993Z,69.69
2023-03-29T13:22:23.841Z,69.70
2023-03-29T13:25:21.510Z,69.81
2023-03-29T13:28:10.542Z,69.50
2023-03-29T13:31:00.551Z,69.16
2023-03-29T13:33:55.973Z,69.00
2023-03-29T13:36:53.918Z,69.26
2023-03-29T13:39:37.795Z,69.20
2023-03-29T13:42:26.019Z,68.89
2023-03-29T13:45:15.722Z,69.16
2023-03-29T13:48:22.520Z,69.16
2023-03-29T13:51:32.719Z,69.17
2023-03-29T13:54:29.523Z,69.31
2023-03-29T13:57:17.768Z,69.50
2023-03-29T14:00:07.192Z,69.49
2023-03-29T14:02:57.423Z,69.28
2023-03-29T14:05:43.236Z,69.42
2023-03-29T14:08:32.383Z,69.17
2023-03-29T14:11:23.244Z,69.34
2023-03-29T14:14:08.329Z,69.27
2023-03-29T14:16:51.728Z,68.98
2023-03-29T14:19:38.564Z,69.11
2023-03-29T14:22:22.192Z,69.29
2023-03-29T14:25:14.547Z,69.34
2023-03-29T14:27:57.428Z,69.27
2023-03-29T14:30:46.634Z,69.44
2023-03-29T14:33:32.518Z,69.65
2023-03-29T14:36:18.672Z,69.56
2023-03-29T14:39:05.596Z,69.27
2023-03-29T14:41:51.757Z,69.15
2023-03-29T14:44:35.607Z,69.22
2023-03-29T14:47:24.383Z,69.23
2023-03-29T14:50:17.549Z,69.17
2023-03-29T14:53:02.566Z,69.16
2023-03-29T14:55:50.144Z,69.37
2023-03-29T14:58:36.445Z,69.45
2023-03-29T15:01:22.289Z,69.45
2023-03-29T15:04:08.575Z,69.47
2023-03-29T15:06:52.790Z,69.21
2023-03-29T15:09:38.429Z,69.40
2023-03-29T15:12:21.860Z,69.38
2023-03-29T15:15:10.468Z,68.97
2023-03-29T15:17:53.774Z,68.59
2023-03-29T15:20:39.712Z,68.53
2023-03-29T15:23:25.151Z,68.65
2023-03-29T15:26:11.549Z,68.94
2023-03-29T15:28:57.479Z,68.76
2023-03-29T15:31:43.004Z,68.27
2023-03-29T15:34:27.543Z,68.25
2023-03-29T15:37:12.732Z,68.14
2023-03-29T15:39:56.331Z,68.28
2023-03-29T15:42:39.201Z,68.14
2023-03-29T15:45:23.106Z,68.12
2023-03-29T15:48:16.602Z,68.17
2023-03-29T15:51:01.945Z,67.86
2023-03-29T15:53:46.769Z,67.96
2023-03-29T15:56:29.927Z,67.64
2023-03-29T15:59:13.325Z,67.73
2023-03-29T16:01:57.874Z,67.78
2023-03-29T16:04:42.195Z,67.85
2023-03-29T16:07:25.034Z,67.81
2023-03-29T16:10:09.000Z,67.77
2023-03-29T16:12:51.932Z,67.94
2023-03-29T16:15:36.844Z,67.82
2023-03-29T16:18:19.713Z,67.67
2023-03-29T16:21:04.793Z,67.79
2023-03-29T16:23:48.100Z,67.51
2023-03-29T16:26:32.626Z,67.84
2023-03-29T16:29:17.312Z,67.83
2023-03-29T16:32:00.737Z,67.56
2023-03-29T16:34:43.691Z,67.74
2023-03-29T16:37:27.915Z,67.85
2023-03-29T16:40:12.519Z,67.69
2023-03-29T16:42:55.343Z,67.89
2023-03-29T16:45:38.514Z,67.92
2023-03-29T16:48:21.745Z,68.14
2023-03-29T16:51:05.168Z,68.20
2023-03-29T16:53:49.403Z,68.15
2023-03-29T16:56:32.279Z,68.15
2023-03-29T16:59:15.358Z,68.38
2023-03-29T17:01:58.651Z,68.34
2023-03-29T17:04:41.573Z,68.39
2023-03-29T17:07:24.576Z,68.45
2023-03-29T17:10:10.715Z,68.22
2023-03-29T17:12:53.923Z,68.39
2023-03-29T17:15:39.581Z,68.69
2023-03-29T17:18:24.239Z,68.63
2023-03-29T17:21:08.173Z,68.59
2023-03-29T17:23:51.052Z,68.64
2023-03-29T17:26:35.673Z,68.84
2023-03-29T17:29:18.440Z,68.88
2023-03-29T17:32:01.446Z,68.79
2023-03-29T17:34:44.319Z,68.86
2023-03-29T17:37:28.164Z,69.07
2023-03-29T17:40:13.858Z,68.98
2023-03-29T17:42:58.201Z,68.94
2023-03-29T17:45:41.125Z,69.08
2023-03-29T17:48:25.055Z,69.22
2023-03-29T17:51:08.365Z,69.17
2023-03-29T17:53:52.344Z,69.31
2023-03-29T17:56:35.339Z,69.24
2023-03-29T17:59:19.851Z,69.29
2023-03-29T18:02:05.466Z,69.27
2023-03-29T18:04:48.685Z,69.44
2023-03-29T18:07:31.957Z,69.57
2023-03-29T18:10:14.962Z,69.98
2023-03-29T18:12:57.985Z,69.88
2023-03-29T18:15:42.337Z,70.22
2023-03-29T18:18:25.687Z,70.66
2023-03-29T18:21:10.188Z,70.52
2023-03-29T18:23:55.540Z,70.85
2023-03-29T18:26:39.627Z,70.99
2023-03-29T18:29:22.528Z,70.95
2023-03-29T18:32:07.328Z,70.83
2023-03-29T18:34:50.376Z,70.59
2023-03-29T18:37:33.257Z,70.69
2023-03-29T18:40:20.387Z,70.60
2023-03-29T18:43:03.270Z,70.90
2023-03-29T18:45:47.589Z,70.67
2023-03-29T18:48:33.696Z,70.70
2023-03-29T18:51:16.704Z,70.95
2023-03-29T18:53:59.584Z,71.22
2023-03-29T18:56:42.541Z,71.48
2023-03-29T18:59:25.784Z,71.42
2023-03-29T19:02:08.788Z,71.22
2023-03-29T19:04:53.027Z,71.40
2023-03-29T19:07:36.354Z,71.46
2023-03-29T19:10:19.270Z,71.31
2023-03-29T19:13:02.127Z,71.26
2023-03-29T19:15:45.454Z,71.24
2023-03-29T19:18:28.387Z,71.36
2023-03-29T19:21:12.687Z,71.38
2023-03-29T19:23:55.873Z,71.54
2023-03-29T19:26:38.731Z,71.27
2023-03-29T19:29:21.841Z,71.20
2023-03-29T19:32:06.772Z,71.41
2023-03-29T19:34:49.720Z,71.46
2023-03-29T19:37:33.941Z,71.43
2023-03-29T19:40:17.234Z,71.65
2023-03-29T19:43:00.247Z,71.57
2023-03-29T19:45:43.452Z,71.71
2023-03-29T19:48:26.534Z,71.91
2023-03-29T19:51:09.567Z,71.82
2023-03-29T19:53:53.987Z,72.02
2023-03-29T19:56:37.398Z,72.15
2023-03-29T19:59:20.343Z,72.45
2023-03-29T20:02:03.263Z,72.53
2023-03-29T20:04:46.376Z,72.44
2023-03-29T20:07:29.441Z,72.40
2023-03-29T20:10:13.701Z,72.45
2023-03-29T20:12:56.995Z,72.58
2023-03-29T20:15:39.945Z,72.79
2023-03-29T20:18:23.633Z,72.72
2023-03-29T20:21:06.975Z,72.81
2023-03-29T20:23:50.144Z,72.97
2023-03-29T20:26:34.396Z,72.97
2023-03-29T20:29:18.038Z,73.06
2023-03-29T20:32:01.127Z,73.13
2023-03-29T20:34:44.056Z,73.05
2023-03-29T20:37:27.200Z,72.89
2023-03-29T20:40:11.422Z,73.03
2023-03-29T20:42:55.611Z,72.72
2023-03-29T20:45:52.212Z,72.63
2023-03-29T20:48:38.229Z,72.70
2023-03-29T20:51:21.492Z,72.89
2023-03-29T20:54:07.744Z,72.70
2023-03-29T20:56:50.859Z,72.95
2023-03-29T20:59:35.639Z,72.65
2023-03-29T21:02:21.178Z,72.84
2023-03-29T21:05:04.247Z,73.03
2023-03-29T21:07:48.073Z,73.10
2023-03-29T21:10:31.003Z,73.17
2023-03-29T21:13:13.885Z,73.04
2023-03-29T21:15:58.275Z,73.21
2023-03-29T21:18:41.680Z,73.06
2023-03-29T21:21:24.648Z,72.96
2023-03-29T21:24:08.657Z,72.96
2023-03-29T21:26:51.635Z,73.11
2023-03-29T21:29:34.539Z,73.06
2023-03-29T21:32:18.874Z,72.80
2023-03-29T21:35:02.033Z,72.93
2023-03-29T21:37:44.974Z,73.03
2023-03-29T21:40:27.892Z,73.05
2023-03-29T21:43:10.941Z,73.13
2023-03-29T21:45:53.848Z,73.27
2023-03-29T21:48:38.578Z,73.59
2023-03-29T21:51:21.482Z,74.41
2023-03-29T21:54:04.648Z,74.79
2023-03-29T21:56:47.797Z,74.71
2023-03-29T21:59:30.865Z,74.70
2023-03-29T22:02:13.848Z,74.58
2023-03-29T22:04:58.097Z,74.50
2023-03-29T22:07:41.017Z,75.00
2023-03-29T22:10:23.940Z,75.04
2023-03-29T22:13:06.897Z,75.48
2023-03-29T22:15:50.959Z,75.19
2023-03-29T22:18:43.210Z,75.38
2023-03-29T22:21:31.184Z,75.23
2023-03-29T22:24:14.111Z,75.36
2023-03-29T22:26:57.108Z,75.17
2023-03-29T22:29:39.967Z,75.23
2023-03-29T22:32:23.039Z,75.38
2023-03-29T22:35:07.013Z,76.24
2023-03-29T22:37:51.299Z,75.98
2023-03-29T22:40:34.293Z,76.22
2023-03-29T22:43:17.290Z,76.17
2023-03-29T22:46:00.257Z,76.32
2023-03-29T22:48:43.224Z,76.17
2023-03-29T22:51:26.318Z,76.11
2023-03-29T22:54:10.569Z,75.92
2023-03-29T22:56:53.844Z,75.96
2023-03-29T22:59:36.761Z,75.99
2023-03-29T23:02:19.649Z,76.35
2023-03-29T23:05:02.600Z,76.09
2023-03-29T23:07:45.515Z,76.27
2023-03-29T23:10:30.590Z,76.59
2023-03-29T23:13:15.703Z,76.59
2023-03-29T23:16:00.456Z,77.03
2023-03-29T23:18:43.442Z,76.97
2023-03-29T23:21:27.901Z,76.50
2023-03-29T23:24:10.788Z,77.04
2023-03-29T23:26:55.283Z,76.74
2023-03-29T23:29:38.916Z,76.94
2023-03-29T23:32:21.857Z,77.37
2023-03-29T23:35:05.253Z,77.93
2023-03-29T23:37:48.525Z,77.60
2023-03-29T23:40:32.953Z,77.63
2023-03-29T23:43:17.195Z,77.21
2023-03-29T23:46:01.672Z,77.47
2023-03-29T23:48:49.376Z,78.07
2023-03-29T23:51:34.948Z,77.60
2023-03-29T23:54:18.271Z,77.63
2023-03-29T23:57:01.312Z,77.61
2023-03-29T23:59:45.613Z,77.46
